sensor_id;sensor_type;location;lat;lon;timestamp;temperature;humidity
23669;DHT22;12011;47.422;15.018;2022-09-20T00:00:35;6.70;99.90
23669;DHT22;12011;47.422;15.018;2022-09-20T00:03:10;6.70;99.90
23669;DHT22;12011;47.422;15.018;2022-09-20T00:05:44;6.60;99.90
23669;DHT22;12011;47.422;15.018;2022-09-20T00:08:18;6.60;99.90
23669;DHT22;12011;47.422;15.018;2022-09-20T00:10:49;6.60;99.90
23669;DHT22;12011;47.422;15.018;2022-09-20T00:13:23;6.50;99.90
23669;DHT22;12011;47.422;15.018;2022-09-20T00:15:53;6.50;99.90
23669;DHT22;12011;47.422;15.018;2022-09-20T00:18:24;6.40;99.90
23669;DHT22;12011;47.422;15.018;2022-09-20T00:20:57;6.40;99.90
23669;DHT22;12011;47.422;15.018;2022-09-20T00:23:35;6.40;99.90
23669;DHT22;12011;47.422;15.018;2022-09-20T00:26:06;6.40;99.90
23669;DHT22;12011;47.422;15.018;2022-09-20T00:28:41;6.40;99.90
23669;DHT22;12011;47.422;15.018;2022-09-20T00:31:14;6.40;99.90
23669;DHT22;12011;47.422;15.018;2022-09-20T00:33:48;6.40;99.90
23669;DHT22;12011;47.422;15.018;2022-09-20T00:36:31;6.50;99.90
23669;DHT22;12011;47.422;15.018;2022-09-20T00:39:04;6.50;99.90
23669;DHT22;12011;47.422;15.018;2022-09-20T00:41:34;5.60;99.90
23669;DHT22;12011;47.422;15.018;2022-09-20T00:47:31;6.40;99.90
23669;DHT22;12011;47.422;15.018;2022-09-20T00:50:19;6.40;99.90
23669;DHT22;12011;47.422;15.018;2022-09-20T00:53:05;6.40;99.90
23669;DHT22;12011;47.422;15.018;2022-09-20T00:55:52;6.40;99.90
23669;DHT22;12011;47.422;15.018;2022-09-20T00:58:34;5.20;99.90
23669;DHT22;12011;47.422;15.018;2022-09-20T01:01:17;6.30;99.90
23669;DHT22;12011;47.422;15.018;2022-09-20T01:03:47;6.30;99.90
23669;DHT22;12011;47.422;15.018;2022-09-20T01:06:37;6.30;99.90
23669;DHT22;12011;47.422;15.018;2022-09-20T01:09:30;6.20;99.90
23669;DHT22;12011;47.422;15.018;2022-09-20T01:12:19;6.30;99.90
23669;DHT22;12011;47.422;15.018;2022-09-20T01:15:05;6.30;99.90
23669;DHT22;12011;47.422;15.018;2022-09-20T01:17:42;6.40;99.90
23669;DHT22;12011;47.422;15.018;2022-09-20T01:20:27;6.40;99.90
23669;DHT22;12011;47.422;15.018;2022-09-20T01:26:35;6.40;99.90
23669;DHT22;12011;47.422;15.018;2022-09-20T01:29:42;6.40;99.90
23669;DHT22;12011;47.422;15.018;2022-09-20T01:32:34;6.40;99.90
23669;DHT22;12011;47.422;15.018;2022-09-20T01:35:27;6.30;99.90
23669;DHT22;12011;47.422;15.018;2022-09-20T01:38:18;6.20;99.90
23669;DHT22;12011;47.422;15.018;2022-09-20T01:41:05;6.30;99.90
23669;DHT22;12011;47.422;15.018;2022-09-20T01:43:57;6.20;99.90
23669;DHT22;12011;47.422;15.018;2022-09-20T01:46:42;6.30;99.90
23669;DHT22;12011;47.422;15.018;2022-09-20T01:49:23;6.40;99.90
23669;DHT22;12011;47.422;15.018;2022-09-20T01:56:10;6.50;99.90
23669;DHT22;12011;47.422;15.018;2022-09-20T02:06:16;6.40;99.90
23669;DHT22;12011;47.422;15.018;2022-09-20T02:13:00;6.40;99.90
23669;DHT22;12011;47.422;15.018;2022-09-20T02:16:00;7.00;99.90
23669;DHT22;12011;47.422;15.018;2022-09-20T02:19:16;6.50;99.90
23669;DHT22;12011;47.422;15.018;2022-09-20T02:22:12;6.10;99.90
23669;DHT22;12011;47.422;15.018;2022-09-20T02:28:24;6.40;99.90
23669;DHT22;12011;47.422;15.018;2022-09-20T02:31:24;6.50;99.90
23669;DHT22;12011;47.422;15.018;2022-09-20T02:38:08;6.50;99.90
23669;DHT22;12011;47.422;15.018;2022-09-20T02:44:25;6.20;99.90
23669;DHT22;12011;47.422;15.018;2022-09-20T02:47:23;7.00;99.90
23669;DHT22;12011;47.422;15.018;2022-09-20T02:50:19;6.10;99.90
23669;DHT22;12011;47.422;15.018;2022-09-20T02:53:15;6.10;99.90
23669;DHT22;12011;47.422;15.018;2022-09-20T02:56:16;6.10;99.90
23669;DHT22;12011;47.422;15.018;2022-09-20T02:59:05;6.10;99.90
23669;DHT22;12011;47.422;15.018;2022-09-20T03:02:00;6.20;99.90
23669;DHT22;12011;47.422;15.018;2022-09-20T03:05:00;6.30;99.90
23669;DHT22;12011;47.422;15.018;2022-09-20T03:08:00;7.00;99.90
23669;DHT22;12011;47.422;15.018;2022-09-20T03:10:53;6.20;99.90
23669;DHT22;12011;47.422;15.018;2022-09-20T03:13:54;6.30;99.90
23669;DHT22;12011;47.422;15.018;2022-09-20T03:16:54;6.30;99.90
23669;DHT22;12011;47.422;15.018;2022-09-20T03:19:55;6.30;99.90
23669;DHT22;12011;47.422;15.018;2022-09-20T03:22:51;6.30;99.90
23669;DHT22;12011;47.422;15.018;2022-09-20T03:25:46;6.20;99.90
23669;DHT22;12011;47.422;15.018;2022-09-20T03:28:47;6.10;99.90
23669;DHT22;12011;47.422;15.018;2022-09-20T03:31:42;6.10;99.90
23669;DHT22;12011;47.422;15.018;2022-09-20T03:34:34;6.10;99.90
23669;DHT22;12011;47.422;15.018;2022-09-20T03:37:30;6.20;99.90
23669;DHT22;12011;47.422;15.018;2022-09-20T03:40:30;6.20;99.90
23669;DHT22;12011;47.422;15.018;2022-09-20T03:43:29;6.20;99.90
23669;DHT22;12011;47.422;15.018;2022-09-20T03:46:20;6.20;99.90
23669;DHT22;12011;47.422;15.018;2022-09-20T03:49:28;6.30;99.90
23669;DHT22;12011;47.422;15.018;2022-09-20T03:52:34;6.30;99.90
23669;DHT22;12011;47.422;15.018;2022-09-20T03:55:51;6.30;99.90
23669;DHT22;12011;47.422;15.018;2022-09-20T03:58:46;6.40;99.90
23669;DHT22;12011;47.422;15.018;2022-09-20T04:01:44;6.30;99.90
23669;DHT22;12011;47.422;15.018;2022-09-20T04:04:32;6.30;99.90
23669;DHT22;12011;47.422;15.018;2022-09-20T04:07:18;6.30;99.90
23669;DHT22;12011;47.422;15.018;2022-09-20T04:10:17;6.30;99.90
23669;DHT22;12011;47.422;15.018;2022-09-20T04:13:15;6.30;99.90
23669;DHT22;12011;47.422;15.018;2022-09-20T04:16:06;6.40;99.90
23669;DHT22;12011;47.422;15.018;2022-09-20T04:18:53;6.40;99.90
23669;DHT22;12011;47.422;15.018;2022-09-20T04:21:38;6.30;99.90
23669;DHT22;12011;47.422;15.018;2022-09-20T04:24:24;6.40;99.90
23669;DHT22;12011;47.422;15.018;2022-09-20T04:27:16;6.30;99.90
23669;DHT22;12011;47.422;15.018;2022-09-20T04:29:58;6.40;99.90
23669;DHT22;12011;47.422;15.018;2022-09-20T04:32:40;6.30;99.90
23669;DHT22;12011;47.422;15.018;2022-09-20T04:35:35;6.30;99.90
23669;DHT22;12011;47.422;15.018;2022-09-20T04:38:30;6.40;99.90
23669;DHT22;12011;47.422;15.018;2022-09-20T04:41:25;6.40;99.90
23669;DHT22;12011;47.422;15.018;2022-09-20T04:51:25;6.40;99.90
23669;DHT22;12011;47.422;15.018;2022-09-20T04:57:55;6.50;99.90
23669;DHT22;12011;47.422;15.018;2022-09-20T05:04:51;6.40;99.90
23669;DHT22;12011;47.422;15.018;2022-09-20T05:11:29;6.40;99.90
23669;DHT22;12011;47.422;15.018;2022-09-20T05:14:36;6.50;99.90
23669;DHT22;12011;47.422;15.018;2022-09-20T05:17:42;6.50;99.90
23669;DHT22;12011;47.422;15.018;2022-09-20T05:20:45;6.60;99.90
23669;DHT22;12011;47.422;15.018;2022-09-20T05:23:47;6.80;99.90
23669;DHT22;12011;47.422;15.018;2022-09-20T05:26:46;6.80;99.90
23669;DHT22;12011;47.422;15.018;2022-09-20T05:29:30;7.00;99.90
23669;DHT22;12011;47.422;15.018;2022-09-20T05:32:16;7.10;99.90
23669;DHT22;12011;47.422;15.018;2022-09-20T05:35:03;7.20;99.90
23669;DHT22;12011;47.422;15.018;2022-09-20T05:37:53;7.30;99.90
23669;DHT22;12011;47.422;15.018;2022-09-20T05:40:59;7.10;99.90
23669;DHT22;12011;47.422;15.018;2022-09-20T05:43:49;7.00;99.90
23669;DHT22;12011;47.422;15.018;2022-09-20T05:46:38;7.30;99.90
23669;DHT22;12011;47.422;15.018;2022-09-20T05:49:44;7.30;99.90
23669;DHT22;12011;47.422;15.018;2022-09-20T05:52:45;7.50;99.90
23669;DHT22;12011;47.422;15.018;2022-09-20T05:55:55;7.60;99.90
23669;DHT22;12011;47.422;15.018;2022-09-20T05:58:52;7.90;99.90
23669;DHT22;12011;47.422;15.018;2022-09-20T06:01:54;7.60;99.90
23669;DHT22;12011;47.422;15.018;2022-09-20T06:04:38;7.80;99.90
23669;DHT22;12011;47.422;15.018;2022-09-20T06:07:36;7.80;99.90
23669;DHT22;12011;47.422;15.018;2022-09-20T06:10:36;8.70;99.90
23669;DHT22;12011;47.422;15.018;2022-09-20T06:13:46;7.60;99.90
23669;DHT22;12011;47.422;15.018;2022-09-20T06:16:40;7.60;99.90
23669;DHT22;12011;47.422;15.018;2022-09-20T06:19:35;7.60;99.90
23669;DHT22;12011;47.422;15.018;2022-09-20T06:22:23;7.60;99.90
23669;DHT22;12011;47.422;15.018;2022-09-20T06:25:03;7.60;99.90
23669;DHT22;12011;47.422;15.018;2022-09-20T06:27:49;7.70;99.90
23669;DHT22;12011;47.422;15.018;2022-09-20T06:30:38;7.60;99.90
23669;DHT22;12011;47.422;15.018;2022-09-20T06:33:26;7.70;99.90
23669;DHT22;12011;47.422;15.018;2022-09-20T06:36:15;8.10;99.90
23669;DHT22;12011;47.422;15.018;2022-09-20T06:39:35;7.70;99.90
23669;DHT22;12011;47.422;15.018;2022-09-20T06:42:52;8.30;99.90
23669;DHT22;12011;47.422;15.018;2022-09-20T06:48:33;8.70;99.90
23669;DHT22;12011;47.422;15.018;2022-09-20T06:51:11;8.40;99.90
23669;DHT22;12011;47.422;15.018;2022-09-20T06:53:55;8.10;99.90
23669;DHT22;12011;47.422;15.018;2022-09-20T06:56:33;8.20;99.90
23669;DHT22;12011;47.422;15.018;2022-09-20T06:59:08;8.20;99.90
23669;DHT22;12011;47.422;15.018;2022-09-20T07:01:53;8.00;99.90
23669;DHT22;12011;47.422;15.018;2022-09-20T07:04:25;7.90;99.90
23669;DHT22;12011;47.422;15.018;2022-09-20T07:06:59;7.90;99.90
23669;DHT22;12011;47.422;15.018;2022-09-20T07:09:33;8.40;99.90
23669;DHT22;12011;47.422;15.018;2022-09-20T07:12:15;9.20;99.90
23669;DHT22;12011;47.422;15.018;2022-09-20T07:14:49;8.90;99.90
23669;DHT22;12011;47.422;15.018;2022-09-20T07:17:27;9.00;99.90
23669;DHT22;12011;47.422;15.018;2022-09-20T07:20:17;8.80;99.90
23669;DHT22;12011;47.422;15.018;2022-09-20T07:23:05;8.60;99.90
23669;DHT22;12011;47.422;15.018;2022-09-20T07:25:41;8.30;99.90
23669;DHT22;12011;47.422;15.018;2022-09-20T07:28:19;8.20;99.90
23669;DHT22;12011;47.422;15.018;2022-09-20T07:30:59;8.10;99.90
23669;DHT22;12011;47.422;15.018;2022-09-20T07:33:32;7.90;99.90
23669;DHT22;12011;47.422;15.018;2022-09-20T07:36:13;7.80;99.90
23669;DHT22;12011;47.422;15.018;2022-09-20T07:38:50;7.60;99.90
23669;DHT22;12011;47.422;15.018;2022-09-20T07:41:29;7.60;99.90
23669;DHT22;12011;47.422;15.018;2022-09-20T07:44:28;7.60;99.90
23669;DHT22;12011;47.422;15.018;2022-09-20T07:47:09;7.60;99.90
23669;DHT22;12011;47.422;15.018;2022-09-20T07:49:53;7.70;99.90
23669;DHT22;12011;47.422;15.018;2022-09-20T07:52:45;7.70;99.90
23669;DHT22;12011;47.422;15.018;2022-09-20T07:55:29;7.80;99.90
23669;DHT22;12011;47.422;15.018;2022-09-20T07:58:11;7.80;99.90
23669;DHT22;12011;47.422;15.018;2022-09-20T08:01:00;7.80;99.90
23669;DHT22;12011;47.422;15.018;2022-09-20T08:03:40;7.90;99.90
23669;DHT22;12011;47.422;15.018;2022-09-20T08:06:34;8.00;99.90
23669;DHT22;12011;47.422;15.018;2022-09-20T08:09:12;8.10;99.90
23669;DHT22;12011;47.422;15.018;2022-09-20T08:11:47;8.20;99.90
23669;DHT22;12011;47.422;15.018;2022-09-20T08:14:28;8.10;99.90
23669;DHT22;12011;47.422;15.018;2022-09-20T08:17:04;8.00;99.90
23669;DHT22;12011;47.422;15.018;2022-09-20T08:19:38;8.00;99.90
23669;DHT22;12011;47.422;15.018;2022-09-20T08:22:13;8.00;99.90
23669;DHT22;12011;47.422;15.018;2022-09-20T08:24:44;8.00;99.90
23669;DHT22;12011;47.422;15.018;2022-09-20T08:27:30;7.90;99.90
23669;DHT22;12011;47.422;15.018;2022-09-20T08:30:08;8.10;99.90
23669;DHT22;12011;47.422;15.018;2022-09-20T08:33:00;8.10;99.90
23669;DHT22;12011;47.422;15.018;2022-09-20T08:36:06;8.10;99.90
23669;DHT22;12011;47.422;15.018;2022-09-20T08:38:56;8.10;99.90
23669;DHT22;12011;47.422;15.018;2022-09-20T08:41:30;8.00;99.90
23669;DHT22;12011;47.422;15.018;2022-09-20T08:44:21;8.00;99.90
23669;DHT22;12011;47.422;15.018;2022-09-20T08:47:12;7.80;99.90
23669;DHT22;12011;47.422;15.018;2022-09-20T08:49:52;7.80;99.90
23669;DHT22;12011;47.422;15.018;2022-09-20T08:52:31;7.70;99.90
23669;DHT22;12011;47.422;15.018;2022-09-20T08:55:35;7.90;99.90
23669;DHT22;12011;47.422;15.018;2022-09-20T08:58:10;8.00;99.90
23669;DHT22;12011;47.422;15.018;2022-09-20T09:00:47;7.90;99.90
23669;DHT22;12011;47.422;15.018;2022-09-20T09:03:25;8.00;99.90
23669;DHT22;12011;47.422;15.018;2022-09-20T09:06:19;8.40;99.90
23669;DHT22;12011;47.422;15.018;2022-09-20T09:09:05;8.80;99.90
23669;DHT22;12011;47.422;15.018;2022-09-20T09:12:12;9.80;99.90
23669;DHT22;12011;47.422;15.018;2022-09-20T09:15:14;10.50;99.90
23669;DHT22;12011;47.422;15.018;2022-09-20T09:18:27;10.50;99.90
23669;DHT22;12011;47.422;15.018;2022-09-20T09:21:03;10.80;99.20
23669;DHT22;12011;47.422;15.018;2022-09-20T09:23:49;10.60;99.90
23669;DHT22;12011;47.422;15.018;2022-09-20T09:26:37;10.70;99.90
23669;DHT22;12011;47.422;15.018;2022-09-20T09:29:20;10.80;95.40
23669;DHT22;12011;47.422;15.018;2022-09-20T09:31:55;11.00;94.90
23669;DHT22;12011;47.422;15.018;2022-09-20T09:34:53;12.80;96.40
23669;DHT22;12011;47.422;15.018;2022-09-20T09:37:53;13.70;93.90
23669;DHT22;12011;47.422;15.018;2022-09-20T09:40:58;16.20;75.70
23669;DHT22;12011;47.422;15.018;2022-09-20T09:43:37;16.90;68.70
23669;DHT22;12011;47.422;15.018;2022-09-20T09:46:23;16.80;65.30
23669;DHT22;12011;47.422;15.018;2022-09-20T09:49:21;17.40;64.60
23669;DHT22;12011;47.422;15.018;2022-09-20T09:52:28;17.40;56.10
23669;DHT22;12011;47.422;15.018;2022-09-20T09:55:20;18.80;59.90
23669;DHT22;12011;47.422;15.018;2022-09-20T09:58:10;19.90;57.60
23669;DHT22;12011;47.422;15.018;2022-09-20T10:01:05;18.10;51.00
23669;DHT22;12011;47.422;15.018;2022-09-20T10:03:59;18.20;55.50
23669;DHT22;12011;47.422;15.018;2022-09-20T10:06:43;16.90;63.90
23669;DHT22;12011;47.422;15.018;2022-09-20T10:09:52;15.30;61.60
23669;DHT22;12011;47.422;15.018;2022-09-20T10:12:57;14.40;65.20
23669;DHT22;12011;47.422;15.018;2022-09-20T10:15:46;12.90;71.70
23669;DHT22;12011;47.422;15.018;2022-09-20T10:18:37;11.30;86.50
23669;DHT22;12011;47.422;15.018;2022-09-20T10:21:24;10.40;95.50
23669;DHT22;12011;47.422;15.018;2022-09-20T10:24:25;10.10;98.20
23669;DHT22;12011;47.422;15.018;2022-09-20T10:27:41;10.00;95.40
23669;DHT22;12011;47.422;15.018;2022-09-20T10:30:36;9.40;98.20
23669;DHT22;12011;47.422;15.018;2022-09-20T10:33:31;9.30;99.90
23669;DHT22;12011;47.422;15.018;2022-09-20T10:36:24;9.30;99.90
23669;DHT22;12011;47.422;15.018;2022-09-20T10:39:30;9.50;99.90
23669;DHT22;12011;47.422;15.018;2022-09-20T10:42:28;9.60;99.90
23669;DHT22;12011;47.422;15.018;2022-09-20T10:45:29;9.90;99.90
23669;DHT22;12011;47.422;15.018;2022-09-20T10:48:25;10.30;91.60
23669;DHT22;12011;47.422;15.018;2022-09-20T10:51:15;10.90;99.90
23669;DHT22;12011;47.422;15.018;2022-09-20T10:57:21;15.00;75.90
23669;DHT22;12011;47.422;15.018;2022-09-20T11:00:28;15.70;64.30
23669;DHT22;12011;47.422;15.018;2022-09-20T11:03:45;15.00;62.60
23669;DHT22;12011;47.422;15.018;2022-09-20T11:06:47;14.90;61.30
23669;DHT22;12011;47.422;15.018;2022-09-20T11:09:37;15.10;68.00
23669;DHT22;12011;47.422;15.018;2022-09-20T11:12:37;14.30;60.70
23669;DHT22;12011;47.422;15.018;2022-09-20T11:15:18;14.00;64.10
23669;DHT22;12011;47.422;15.018;2022-09-20T11:18:16;13.90;68.70
23669;DHT22;12011;47.422;15.018;2022-09-20T11:21:10;13.80;70.70
23669;DHT22;12011;47.422;15.018;2022-09-20T11:23:58;13.70;72.10
23669;DHT22;12011;47.422;15.018;2022-09-20T11:26:36;13.60;70.30
23669;DHT22;12011;47.422;15.018;2022-09-20T11:29:19;13.60;66.30
23669;DHT22;12011;47.422;15.018;2022-09-20T11:32:02;13.80;72.20
23669;DHT22;12011;47.422;15.018;2022-09-20T11:34:50;14.00;71.20
23669;DHT22;12011;47.422;15.018;2022-09-20T11:37:34;13.60;71.80
23669;DHT22;12011;47.422;15.018;2022-09-20T11:40:27;13.60;69.60
23669;DHT22;12011;47.422;15.018;2022-09-20T11:43:13;13.50;72.70
23669;DHT22;12011;47.422;15.018;2022-09-20T11:45:52;13.10;82.30
23669;DHT22;12011;47.422;15.018;2022-09-20T11:48:30;12.70;81.00
23669;DHT22;12011;47.422;15.018;2022-09-20T11:51:48;12.30;78.90
23669;DHT22;12011;47.422;15.018;2022-09-20T11:55:05;12.10;89.80
23669;DHT22;12011;47.422;15.018;2022-09-20T11:58:04;12.50;90.00
23669;DHT22;12011;47.422;15.018;2022-09-20T12:00:48;12.50;83.50
23669;DHT22;12011;47.422;15.018;2022-09-20T12:03:32;12.50;87.50
23669;DHT22;12011;47.422;15.018;2022-09-20T12:06:06;12.40;78.40
23669;DHT22;12011;47.422;15.018;2022-09-20T12:12:23;12.40;88.30
23669;DHT22;12011;47.422;15.018;2022-09-20T12:15:07;12.80;87.30
23669;DHT22;12011;47.422;15.018;2022-09-20T12:18:13;12.40;78.70
23669;DHT22;12011;47.422;15.018;2022-09-20T12:21:07;12.20;76.60
23669;DHT22;12011;47.422;15.018;2022-09-20T12:27:20;12.00;91.40
23669;DHT22;12011;47.422;15.018;2022-09-20T12:30:21;12.30;90.20
23669;DHT22;12011;47.422;15.018;2022-09-20T12:32:57;12.00;86.20
23669;DHT22;12011;47.422;15.018;2022-09-20T12:35:57;12.30;90.60
23669;DHT22;12011;47.422;15.018;2022-09-20T12:41:50;13.00;87.30
23669;DHT22;12011;47.422;15.018;2022-09-20T12:44:31;13.40;76.20
23669;DHT22;12011;47.422;15.018;2022-09-20T12:47:17;13.40;71.70
23669;DHT22;12011;47.422;15.018;2022-09-20T12:49:56;13.20;69.30
23669;DHT22;12011;47.422;15.018;2022-09-20T12:52:50;13.60;70.70
23669;DHT22;12011;47.422;15.018;2022-09-20T12:55:49;14.00;69.60
23669;DHT22;12011;47.422;15.018;2022-09-20T12:58:24;13.70;69.10
23669;DHT22;12011;47.422;15.018;2022-09-20T13:01:30;13.00;70.30
23669;DHT22;12011;47.422;15.018;2022-09-20T13:07:38;14.10;66.90
23669;DHT22;12011;47.422;15.018;2022-09-20T13:10:34;13.60;65.00
23669;DHT22;12011;47.422;15.018;2022-09-20T13:13:34;13.40;72.10
23669;DHT22;12011;47.422;15.018;2022-09-20T13:16:19;13.30;67.20
23669;DHT22;12011;47.422;15.018;2022-09-20T13:19:02;13.00;66.80
23669;DHT22;12011;47.422;15.018;2022-09-20T13:21:41;12.70;65.20
23669;DHT22;12011;47.422;15.018;2022-09-20T13:24:24;12.70;69.60
23669;DHT22;12011;47.422;15.018;2022-09-20T13:27:01;13.10;73.80
23669;DHT22;12011;47.422;15.018;2022-09-20T13:29:40;13.10;65.40
23669;DHT22;12011;47.422;15.018;2022-09-20T13:32:24;13.10;70.00
23669;DHT22;12011;47.422;15.018;2022-09-20T13:35:04;12.70;69.00
23669;DHT22;12011;47.422;15.018;2022-09-20T13:37:48;14.00;69.60
23669;DHT22;12011;47.422;15.018;2022-09-20T13:40:38;13.90;65.00
23669;DHT22;12011;47.422;15.018;2022-09-20T13:43:28;13.90;64.80
23669;DHT22;12011;47.422;15.018;2022-09-20T13:46:20;13.90;67.90
23669;DHT22;12011;47.422;15.018;2022-09-20T13:49:11;13.60;66.00
23669;DHT22;12011;47.422;15.018;2022-09-20T13:51:53;13.00;67.30
23669;DHT22;12011;47.422;15.018;2022-09-20T13:54:35;12.10;70.70
23669;DHT22;12011;47.422;15.018;2022-09-20T13:57:21;11.20;77.30
23669;DHT22;12011;47.422;15.018;2022-09-20T14:00:04;10.80;76.50
23669;DHT22;12011;47.422;15.018;2022-09-20T14:02:43;10.50;81.60
23669;DHT22;12011;47.422;15.018;2022-09-20T14:05:24;10.20;91.20
23669;DHT22;12011;47.422;15.018;2022-09-20T14:08:01;10.00;92.00
23669;DHT22;12011;47.422;15.018;2022-09-20T14:11:02;9.60;94.00
23669;DHT22;12011;47.422;15.018;2022-09-20T14:13:45;9.40;89.80
23669;DHT22;12011;47.422;15.018;2022-09-20T14:16:26;9.40;90.60
23669;DHT22;12011;47.422;15.018;2022-09-20T14:19:16;9.60;96.10
23669;DHT22;12011;47.422;15.018;2022-09-20T14:21:48;9.80;82.90
23669;DHT22;12011;47.422;15.018;2022-09-20T14:24:27;9.80;88.60
23669;DHT22;12011;47.422;15.018;2022-09-20T14:27:15;9.80;82.30
23669;DHT22;12011;47.422;15.018;2022-09-20T14:29:53;9.90;94.00
23669;DHT22;12011;47.422;15.018;2022-09-20T14:32:45;9.80;82.00
23669;DHT22;12011;47.422;15.018;2022-09-20T14:35:32;9.80;84.70
23669;DHT22;12011;47.422;15.018;2022-09-20T14:38:12;9.90;84.20
23669;DHT22;12011;47.422;15.018;2022-09-20T14:40:50;9.80;91.20
23669;DHT22;12011;47.422;15.018;2022-09-20T14:43:29;9.50;90.50
23669;DHT22;12011;47.422;15.018;2022-09-20T14:46:16;9.40;92.20
23669;DHT22;12011;47.422;15.018;2022-09-20T14:49:21;9.50;97.20
23669;DHT22;12011;47.422;15.018;2022-09-20T14:52:35;9.60;90.70
23669;DHT22;12011;47.422;15.018;2022-09-20T14:55:25;9.70;88.40
23669;DHT22;12011;47.422;15.018;2022-09-20T14:58:08;9.70;91.50
23669;DHT22;12011;47.422;15.018;2022-09-20T15:00:57;9.90;92.50
23669;DHT22;12011;47.422;15.018;2022-09-20T15:03:47;8.70;90.70
23669;DHT22;12011;47.422;15.018;2022-09-20T15:06:34;9.70;91.10
23669;DHT22;12011;47.422;15.018;2022-09-20T15:09:10;9.70;91.90
23669;DHT22;12011;47.422;15.018;2022-09-20T15:11:46;9.80;91.20
23669;DHT22;12011;47.422;15.018;2022-09-20T15:14:33;11.00;92.60
23669;DHT22;12011;47.422;15.018;2022-09-20T15:17:16;8.80;84.50
23669;DHT22;12011;47.422;15.018;2022-09-20T15:20:03;9.70;79.60
23669;DHT22;12011;47.422;15.018;2022-09-20T15:22:43;9.70;85.50
23669;DHT22;12011;47.422;15.018;2022-09-20T15:25:21;9.50;86.50
23669;DHT22;12011;47.422;15.018;2022-09-20T15:28:15;9.50;96.10
23669;DHT22;12011;47.422;15.018;2022-09-20T15:31:05;8.90;86.70
23669;DHT22;12011;47.422;15.018;2022-09-20T15:34:04;9.10;95.10
23669;DHT22;12011;47.422;15.018;2022-09-20T15:36:41;9.50;99.20
23669;DHT22;12011;47.422;15.018;2022-09-20T15:39:19;8.50;92.60
23669;DHT22;12011;47.422;15.018;2022-09-20T15:41:59;9.50;96.50
23669;DHT22;12011;47.422;15.018;2022-09-20T15:44:42;9.40;99.90
23669;DHT22;12011;47.422;15.018;2022-09-20T15:47:41;9.40;99.90
23669;DHT22;12011;47.422;15.018;2022-09-20T15:50:18;9.40;92.70
23669;DHT22;12011;47.422;15.018;2022-09-20T15:53:01;9.20;99.00
23669;DHT22;12011;47.422;15.018;2022-09-20T15:55:40;8.30;95.90
23669;DHT22;12011;47.422;15.018;2022-09-20T15:58:15;9.00;92.20
23669;DHT22;12011;47.422;15.018;2022-09-20T16:00:53;9.10;88.00
23669;DHT22;12011;47.422;15.018;2022-09-20T16:03:35;9.10;91.90
23669;DHT22;12011;47.422;15.018;2022-09-20T16:06:09;9.10;85.40
23669;DHT22;12011;47.422;15.018;2022-09-20T16:08:45;9.10;87.10
23669;DHT22;12011;47.422;15.018;2022-09-20T16:11:38;9.00;83.60
23669;DHT22;12011;47.422;15.018;2022-09-20T16:14:08;9.00;95.30
23669;DHT22;12011;47.422;15.018;2022-09-20T16:16:39;8.90;98.50
23669;DHT22;12011;47.422;15.018;2022-09-20T16:19:15;8.80;95.10
23669;DHT22;12011;47.422;15.018;2022-09-20T16:22:04;8.80;91.70
23669;DHT22;12011;47.422;15.018;2022-09-20T16:24:50;8.70;91.80
23669;DHT22;12011;47.422;15.018;2022-09-20T16:27:30;8.50;91.60
23669;DHT22;12011;47.422;15.018;2022-09-20T16:30:13;8.50;92.30
23669;DHT22;12011;47.422;15.018;2022-09-20T16:32:45;8.60;98.20
23669;DHT22;12011;47.422;15.018;2022-09-20T16:35:23;8.50;92.90
23669;DHT22;12011;47.422;15.018;2022-09-20T16:37:59;8.50;97.40
23669;DHT22;12011;47.422;15.018;2022-09-20T16:40:37;8.60;97.10
23669;DHT22;12011;47.422;15.018;2022-09-20T16:43:08;9.50;94.20
23669;DHT22;12011;47.422;15.018;2022-09-20T16:45:39;9.30;92.00
23669;DHT22;12011;47.422;15.018;2022-09-20T16:48:09;8.50;91.70
23669;DHT22;12011;47.422;15.018;2022-09-20T16:50:40;8.40;94.90
23669;DHT22;12011;47.422;15.018;2022-09-20T16:53:14;8.40;99.90
23669;DHT22;12011;47.422;15.018;2022-09-20T16:55:47;8.40;96.60
23669;DHT22;12011;47.422;15.018;2022-09-20T16:58:26;8.20;99.90
23669;DHT22;12011;47.422;15.018;2022-09-20T17:01:08;8.70;99.90
23669;DHT22;12011;47.422;15.018;2022-09-20T17:03:38;8.20;99.90
23669;DHT22;12011;47.422;15.018;2022-09-20T17:06:11;8.20;99.90
23669;DHT22;12011;47.422;15.018;2022-09-20T17:08:45;8.20;99.90
23669;DHT22;12011;47.422;15.018;2022-09-20T17:11:21;8.20;99.90
23669;DHT22;12011;47.422;15.018;2022-09-20T17:14:01;8.10;99.90
23669;DHT22;12011;47.422;15.018;2022-09-20T17:16:34;8.00;99.90
23669;DHT22;12011;47.422;15.018;2022-09-20T17:19:06;7.80;99.90
23669;DHT22;12011;47.422;15.018;2022-09-20T17:21:38;7.70;99.90
23669;DHT22;12011;47.422;15.018;2022-09-20T17:24:15;7.70;99.90
23669;DHT22;12011;47.422;15.018;2022-09-20T17:26:52;7.50;99.90
23669;DHT22;12011;47.422;15.018;2022-09-20T17:29:28;7.80;99.90
23669;DHT22;12011;47.422;15.018;2022-09-20T17:31:58;7.20;99.90
23669;DHT22;12011;47.422;15.018;2022-09-20T17:34:33;7.20;99.90
23669;DHT22;12011;47.422;15.018;2022-09-20T17:37:06;7.20;99.90
23669;DHT22;12011;47.422;15.018;2022-09-20T17:39:46;7.10;99.90
23669;DHT22;12011;47.422;15.018;2022-09-20T17:42:28;7.10;99.90
23669;DHT22;12011;47.422;15.018;2022-09-20T17:44:59;7.20;99.90
23669;DHT22;12011;47.422;15.018;2022-09-20T17:47:36;7.10;99.90
23669;DHT22;12011;47.422;15.018;2022-09-20T17:50:07;7.20;99.90
23669;DHT22;12011;47.422;15.018;2022-09-20T17:52:43;7.10;99.90
23669;DHT22;12011;47.422;15.018;2022-09-20T17:55:28;7.10;99.90
23669;DHT22;12011;47.422;15.018;2022-09-20T17:58:01;7.20;99.90
23669;DHT22;12011;47.422;15.018;2022-09-20T18:00:36;7.20;99.90
23669;DHT22;12011;47.422;15.018;2022-09-20T18:03:06;7.10;99.90
23669;DHT22;12011;47.422;15.018;2022-09-20T18:05:36;7.00;99.90
23669;DHT22;12011;47.422;15.018;2022-09-20T18:08:11;7.00;99.90
23669;DHT22;12011;47.422;15.018;2022-09-20T18:10:41;7.00;99.90
23669;DHT22;12011;47.422;15.018;2022-09-20T18:13:32;7.00;99.90
23669;DHT22;12011;47.422;15.018;2022-09-20T18:16:08;6.90;99.90
23669;DHT22;12011;47.422;15.018;2022-09-20T18:18:44;6.70;99.90
23669;DHT22;12011;47.422;15.018;2022-09-20T18:21:18;6.60;99.90
23669;DHT22;12011;47.422;15.018;2022-09-20T18:23:51;6.50;99.90
23669;DHT22;12011;47.422;15.018;2022-09-20T18:26:22;6.40;99.90
23669;DHT22;12011;47.422;15.018;2022-09-20T18:29:01;6.30;99.90
23669;DHT22;12011;47.422;15.018;2022-09-20T18:31:37;6.40;99.90
23669;DHT22;12011;47.422;15.018;2022-09-20T18:34:11;6.30;99.90
23669;DHT22;12011;47.422;15.018;2022-09-20T18:37:09;6.20;99.90
23669;DHT22;12011;47.422;15.018;2022-09-20T18:39:42;6.20;99.90